Time;durP1;ratioP1;P1;durP2;ratioP2;P2;SDS_P1;SDS_P2;PMS_P1;PMS_P2;Temp;Humidity;BMP_temperature;BMP_pressure;BME280_temperature;BME280_humidity;BME280_pressure;Samples;Min_cycle;Max_cycle;Signal;HPM_P1;HPM_P2
2022/09/13 00:00:30;;;;;;;0.30;0.30;;;;;;;17.47;87.34;99077.00;5091283;28;20195;-66
2022/09/13 00:02:57;;;;;;;0.43;0.43;;;;;;;17.49;87.06;99071.72;5091338;28;20717;-66
2022/09/13 00:05:24;;;;;;;0.50;0.50;;;;;;;17.47;87.20;99073.56;5091007;28;20683;-66
2022/09/13 00:07:52;;;;;;;0.40;0.40;;;;;;;17.41;87.46;99068.78;5088692;28;20689;-66
2022/09/13 00:10:19;;;;;;;0.40;0.40;;;;;;;17.41;87.22;99071.38;5090782;28;20613;-66
2022/09/13 00:12:48;;;;;;;0.50;0.50;;;;;;;17.44;86.76;99069.44;5091120;28;20575;-66
2022/09/13 00:15:15;;;;;;;0.50;0.50;;;;;;;17.43;86.51;99067.75;5091278;28;20667;-66
2022/09/13 00:17:42;;;;;;;0.43;0.43;;;;;;;17.45;86.89;99068.47;5090768;28;20221;-66
2022/09/13 00:20:09;;;;;;;0.30;0.30;;;;;;;17.47;86.52;99069.22;5091350;28;20681;-66
2022/09/13 00:22:36;;;;;;;0.33;0.33;;;;;;;17.44;86.74;99068.59;5090534;28;20199;-66
2022/09/13 00:25:06;;;;;;;0.50;0.50;;;;;;;17.42;87.20;99055.72;5090955;28;20191;-66
2022/09/13 00:27:33;;;;;;;0.60;0.60;;;;;;;17.50;86.97;99060.41;5090144;28;20199;-66
2022/09/13 00:30:00;;;;;;;0.40;0.40;;;;;;;17.51;86.75;99057.72;5090603;28;20236;-66
2022/09/13 00:32:27;;;;;;;0.50;0.50;;;;;;;17.50;87.06;99063.00;5089801;28;20694;-66
2022/09/13 00:34:54;;;;;;;0.40;0.40;;;;;;;17.48;87.57;99054.50;5090826;28;20230;-66
2022/09/13 00:37:20;;;;;;;0.40;0.40;;;;;;;17.46;87.43;99064.13;5090583;28;20210;-66
2022/09/13 00:39:47;;;;;;;0.57;0.57;;;;;;;17.44;87.74;99060.81;5090505;28;20710;-66
2022/09/13 00:42:16;;;;;;;0.40;0.40;;;;;;;17.43;87.66;99057.38;5091013;28;20218;-66
2022/09/13 00:44:57;;;;;;;0.60;0.60;;;;;;;17.45;87.87;99065.06;5090701;28;20199;-66
2022/09/13 00:47:30;;;;;;;0.50;0.50;;;;;;;17.46;87.56;99062.38;5090700;28;20211;-66
2022/09/13 00:50:02;;;;;;;0.50;0.50;;;;;;;17.44;88.27;99059.06;5086694;28;20199;-66
2022/09/13 00:52:32;;;;;;;0.40;0.40;;;;;;;17.39;87.68;99055.06;5090717;28;20206;-66
2022/09/13 00:55:02;;;;;;;0.40;0.40;;;;;;;17.32;87.93;99052.03;5090907;28;20203;-66
2022/09/13 00:57:33;;;;;;;0.43;0.43;;;;;;;17.25;88.37;99049.00;5092167;28;20211;-66
2022/09/13 01:00:09;;;;;;;0.50;0.50;;;;;;;17.16;88.79;99048.75;5094550;28;20585;-67
2022/09/13 01:02:37;;;;;;;0.40;0.40;;;;;;;17.15;89.21;99047.09;5094665;28;20191;-66
2022/09/13 01:05:04;;;;;;;0.40;0.40;;;;;;;17.13;89.68;99051.53;5094664;28;20191;-66
2022/09/13 01:07:31;;;;;;;0.40;0.40;;;;;;;17.14;89.38;99048.03;5094631;28;20630;-66
2022/09/13 01:09:58;;;;;;;0.53;0.53;;;;;;;17.10;89.77;99052.56;5094241;28;20241;-67
2022/09/13 01:12:35;;;;;;;0.50;0.50;;;;;;;17.10;90.20;99046.53;5093737;28;20276;-66
2022/09/13 01:15:04;;;;;;;0.47;0.47;;;;;;;17.03;89.90;99034.91;5094112;28;20196;-66
2022/09/13 01:17:32;;;;;;;0.40;0.40;;;;;;;17.06;90.19;99038.13;5094493;28;20215;-66
2022/09/13 01:20:00;;;;;;;0.50;0.50;;;;;;;17.10;90.46;99038.78;5094121;28;20240;-66
2022/09/13 01:22:58;;;;;;;0.57;0.57;;;;;;;17.07;90.07;99033.78;5093872;28;20272;-66
2022/09/13 01:26:03;;;;;;;0.40;0.40;;;;;;;17.10;89.75;99039.59;5090821;28;20206;-66
2022/09/13 01:28:51;;;;;;;0.40;0.40;;;;;;;17.07;90.24;99049.31;5075236;28;20207;-66
2022/09/13 01:31:28;;;;;;;0.50;0.50;;;;;;;17.10;90.01;99039.59;5092016;28;20196;-67
2022/09/13 01:34:07;;;;;;;0.50;0.50;;;;;;;17.06;90.17;99042.50;5093733;28;20195;-66
2022/09/13 01:36:56;;;;;;;0.40;0.40;;;;;;;16.92;90.44;99020.03;5094116;28;20710;-66
2022/09/13 01:39:38;;;;;;;0.40;0.40;;;;;;;16.99;90.45;99041.22;5094149;28;20575;-66
2022/09/13 01:42:16;;;;;;;0.40;0.40;;;;;;;16.95;90.69;99034.56;5093649;28;20206;-66
2022/09/13 01:44:56;;;;;;;0.50;0.50;;;;;;;16.93;90.71;99037.22;5094082;28;20199;-66
2022/09/13 01:47:29;;;;;;;0.50;0.50;;;;;;;16.87;90.94;99031.59;5094035;28;20194;-66
2022/09/13 01:50:10;;;;;;;0.40;0.40;;;;;;;16.76;91.74;99025.34;5094071;28;20614;-66
2022/09/13 01:52:43;;;;;;;0.40;0.40;;;;;;;16.79;91.48;99035.50;5093466;28;20701;-66
2022/09/13 01:55:22;;;;;;;0.30;0.30;;;;;;;16.79;91.47;99035.50;5093156;28;20694;-67
2022/09/13 01:57:54;;;;;;;0.50;0.50;;;;;;;16.75;91.75;99039.19;5093461;28;20292;-66
2022/09/13 02:00:21;;;;;;;0.40;0.40;;;;;;;16.78;91.57;99036.44;5093487;28;22991;-66
2022/09/13 02:02:54;;;;;;;0.40;0.40;;;;;;;16.74;91.43;99032.34;5093583;28;20548;-66
2022/09/13 02:05:27;;;;;;;0.40;0.40;;;;;;;16.66;91.86;99020.81;5093303;28;20257;-66
2022/09/13 02:08:00;;;;;;;0.60;0.60;;;;;;;16.71;91.74;99035.13;5093421;28;20211;-66
2022/09/13 02:10:33;;;;;;;0.50;0.50;;;;;;;16.66;91.96;99031.16;5092991;28;20264;-66
2022/09/13 02:13:05;;;;;;;0.50;0.50;;;;;;;16.65;92.33;99027.75;5093293;28;20238;-66
2022/09/13 02:15:37;;;;;;;0.43;0.43;;;;;;;16.59;92.62;99027.28;5093307;28;20199;-66
2022/09/13 02:18:09;;;;;;;0.50;0.50;;;;;;;16.56;92.76;99017.94;5093260;28;20218;-66
2022/09/13 02:20:40;;;;;;;0.50;0.50;;;;;;;16.55;92.32;99020.63;5093299;28;20199;-66
2022/09/13 02:23:13;;;;;;;0.40;0.40;;;;;;;16.52;93.02;99020.78;5093234;28;20206;-66
2022/09/13 02:25:41;;;;;;;0.40;0.40;;;;;;;16.50;92.80;99023.47;5091968;28;20203;-66
2022/09/13 02:28:11;;;;;;;0.50;0.50;;;;;;;16.51;92.63;99024.31;5092496;28;20253;-66
2022/09/13 02:30:43;;;;;;;0.40;0.40;;;;;;;16.46;92.86;99015.97;5088980;28;20206;-66
2022/09/13 02:33:16;;;;;;;0.40;0.40;;;;;;;16.44;92.66;99023.84;5093312;28;20548;-66
2022/09/13 02:35:50;;;;;;;0.40;0.40;;;;;;;16.44;92.65;99023.84;5093110;28;20629;-66
2022/09/13 02:38:22;;;;;;;0.40;0.40;;;;;;;16.37;92.71;99026.88;5092543;28;20279;-66
2022/09/13 02:40:56;;;;;;;0.50;0.50;;;;;;;16.31;92.89;99028.06;5093084;28;20221;-66
2022/09/13 02:43:30;;;;;;;0.40;0.40;;;;;;;16.27;92.64;99032.59;5092498;28;20201;-66
2022/09/13 02:46:09;;;;;;;0.40;0.40;;;;;;;16.24;92.81;99021.59;5092664;28;20199;-66
2022/09/13 02:48:49;;;;;;;0.40;0.40;;;;;;;16.20;92.80;99015.78;5092577;28;20385;-66
2022/09/13 02:51:21;;;;;;;0.50;0.50;;;;;;;16.20;92.92;99020.09;5092675;28;20203;-67
2022/09/13 02:53:54;;;;;;;0.50;0.50;;;;;;;16.22;93.04;99028.59;5092351;28;20262;-66
2022/09/13 02:56:29;;;;;;;0.50;0.50;;;;;;;16.21;92.92;99026.94;5092618;28;20194;-66
2022/09/13 02:59:01;;;;;;;0.60;0.60;;;;;;;16.25;92.82;99024.06;5092557;28;20202;-66
2022/09/13 03:01:27;;;;;;;0.40;0.40;;;;;;;16.29;92.70;99024.72;5092128;28;20199;-66
2022/09/13 03:03:56;;;;;;;0.50;0.50;;;;;;;16.23;92.56;99018.16;5092600;28;20685;-66
2022/09/13 03:06:24;;;;;;;0.40;0.40;;;;;;;16.31;92.82;99028.06;5092660;28;20192;-66
2022/09/13 03:08:51;;;;;;;0.43;0.43;;;;;;;16.36;92.74;99033.78;5091996;28;20206;-66
2022/09/13 03:11:30;;;;;;;0.50;0.50;;;;;;;16.41;92.06;99031.78;5092285;28;20218;-66
2022/09/13 03:14:12;;;;;;;0.40;0.40;;;;;;;16.42;92.26;99032.59;5091799;28;20218;-66
2022/09/13 03:16:53;;;;;;;0.40;0.40;;;;;;;16.33;92.87;99036.56;5091591;28;20700;-66
2022/09/13 03:19:36;;;;;;;0.70;0.70;;;;;;;16.16;93.35;99013.44;5092002;28;20213;-66
2022/09/13 03:22:20;;;;;;;0.40;0.40;;;;;;;16.30;93.70;99047.09;5083819;28;20200;-66
2022/09/13 03:24:53;;;;;;;0.43;0.43;;;;;;;16.29;93.59;99040.25;5087607;28;20260;-66
2022/09/13 03:27:30;;;;;;;0.50;0.50;;;;;;;16.31;93.61;99043.59;5086496;28;20682;-66
2022/09/13 03:30:02;;;;;;;0.40;0.40;;;;;;;16.35;93.20;99044.25;5088097;28;20954;-66
2022/09/13 03:32:37;;;;;;;0.50;0.50;;;;;;;16.39;93.25;99041.38;5089783;28;20678;-66
2022/09/13 03:35:15;;;;;;;0.40;0.40;;;;;;;16.43;92.90;99048.03;5086682;28;20194;-66
2022/09/13 03:37:52;;;;;;;0.40;0.40;;;;;;;16.14;92.84;98999.78;5090998;28;20318;-66
2022/09/13 03:40:26;;;;;;;0.50;0.50;;;;;;;16.32;92.81;99029.72;5089921;28;20230;-66
2022/09/13 03:42:58;;;;;;;0.47;0.47;;;;;;;16.24;93.27;99024.19;5091065;28;20203;-66
2022/09/13 03:45:31;;;;;;;0.60;0.60;;;;;;;16.34;94.03;99047.75;5090673;28;20265;-66
2022/09/13 03:47:59;;;;;;;0.43;0.43;;;;;;;16.25;94.86;99049.13;5087839;28;20210;-66
2022/09/13 03:50:27;;;;;;;0.43;0.43;;;;;;;16.14;95.41;99056.69;5089529;28;20205;-66
2022/09/13 03:53:00;;;;;;;0.40;0.40;;;;;;;16.07;95.99;99055.34;5087035;28;20607;-66
2022/09/13 03:55:28;;;;;;;0.50;0.50;;;;;;;16.02;96.48;99047.06;5090675;28;20685;-66
2022/09/13 03:57:55;;;;;;;0.50;0.50;;;;;;;15.96;97.01;99050.81;5090574;28;20703;-66
2022/09/13 04:00:22;;;;;;;0.50;0.50;;;;;;;15.85;97.21;99039.41;5090917;28;20207;-66
2022/09/13 04:02:49;;;;;;;0.60;0.60;;;;;;;15.94;97.31;99047.47;5087254;28;20286;-66
2022/09/13 04:05:16;;;;;;;0.40;0.40;;;;;;;15.94;97.49;99054.41;5086632;28;20199;-66
2022/09/13 04:07:44;;;;;;;0.50;0.50;;;;;;;15.91;97.23;99049.41;5090853;28;20203;-66
2022/09/13 04:10:11;;;;;;;0.50;0.50;;;;;;;15.92;97.42;99049.34;5091170;28;20199;-66
2022/09/13 04:12:40;;;;;;;0.60;0.60;;;;;;;15.90;96.77;99052.91;5090849;28;20306;-66
2022/09/13 04:15:08;;;;;;;0.50;0.50;;;;;;;15.91;96.73;99059.75;5090962;28;20203;-66
2022/09/13 04:17:36;;;;;;;0.40;0.40;;;;;;;15.88;96.82;99059.91;5090183;28;20703;-66
2022/09/13 04:20:04;;;;;;;0.43;0.43;;;;;;;15.84;96.97;99064.44;5090933;28;20256;-66
2022/09/13 04:22:32;;;;;;;0.50;0.50;;;;;;;15.84;96.95;99066.19;5089645;28;20209;-66
2022/09/13 04:25:00;;;;;;;0.47;0.47;;;;;;;15.67;97.55;99049.88;5091204;28;20206;-66
2022/09/13 04:27:27;;;;;;;0.50;0.50;;;;;;;15.75;98.08;99060.63;5088487;28;20653;-66
2022/09/13 04:29:54;;;;;;;0.40;0.40;;;;;;;15.79;98.60;99055.28;5091166;28;20667;-66
2022/09/13 04:32:21;;;;;;;0.43;0.43;;;;;;;15.80;98.96;99064.72;5090422;28;20204;-66
2022/09/13 04:34:48;;;;;;;0.40;0.40;;;;;;;15.77;99.12;99062.31;5090855;28;20199;-66
2022/09/13 04:37:14;;;;;;;0.50;0.50;;;;;;;15.84;99.42;99066.19;5090636;28;20207;-66
2022/09/13 04:39:42;;;;;;;0.50;0.50;;;;;;;15.93;98.67;99068.28;5090763;28;20207;-66
2022/09/13 04:42:11;;;;;;;0.30;0.30;;;;;;;16.02;98.49;99072.91;5090991;28;20699;-66
2022/09/13 04:44:37;;;;;;;0.40;0.40;;;;;;;16.07;98.38;99070.88;5090651;28;20253;-66
2022/09/13 04:47:06;;;;;;;0.50;0.50;;;;;;;16.08;97.85;99059.63;5090808;28;20244;-66
2022/09/13 04:49:33;;;;;;;0.40;0.40;;;;;;;16.26;96.61;99071.47;5090437;28;20662;-66
2022/09/13 04:52:00;;;;;;;0.40;0.40;;;;;;;16.41;95.94;99074.94;5090523;28;20587;-67
2022/09/13 04:54:27;;;;;;;0.43;0.43;;;;;;;16.54;95.29;99076.69;5090911;28;20203;-66
2022/09/13 04:56:54;;;;;;;0.40;0.40;;;;;;;16.66;94.42;99070.81;5090829;28;20199;-66
2022/09/13 04:59:22;;;;;;;0.43;0.43;;;;;;;16.76;93.69;99077.13;5090582;28;20661;-66
2022/09/13 05:01:49;;;;;;;0.40;0.40;;;;;;;16.93;92.25;99072.66;5090550;28;20199;-66
2022/09/13 05:04:16;;;;;;;0.40;0.40;;;;;;;17.11;91.75;99081.88;5090563;28;20199;-66
2022/09/13 05:06:42;;;;;;;0.40;0.40;;;;;;;17.29;90.26;99080.72;5090542;28;20199;-66
2022/09/13 05:09:13;;;;;;;0.50;0.50;;;;;;;17.47;90.62;99084.78;5090245;28;20188;-67
2022/09/13 05:11:39;;;;;;;0.40;0.40;;;;;;;17.62;89.11;99078.66;5090098;28;20200;-66
2022/09/13 05:14:06;;;;;;;0.40;0.40;;;;;;;17.74;87.16;99072.66;5090720;28;20257;-66
2022/09/13 05:16:34;;;;;;;0.50;0.50;;;;;;;17.93;86.54;99093.06;5090481;28;20579;-66
2022/09/13 05:19:02;;;;;;;0.70;0.70;;;;;;;18.06;86.45;99083.53;5088610;28;20343;-66
2022/09/13 05:21:29;;;;;;;0.50;0.50;;;;;;;18.19;85.92;99088.78;5090323;28;20207;-66
2022/09/13 05:23:57;;;;;;;0.50;0.50;;;;;;;18.41;85.40;99094.19;5089985;28;20219;-66
2022/09/13 05:26:28;;;;;;;0.30;0.30;;;;;;;18.46;85.49;99071.34;5090874;28;20594;-66
2022/09/13 05:28:55;;;;;;;0.50;0.50;;;;;;;18.66;84.62;99081.25;5090220;28;20199;-66
2022/09/13 05:31:24;;;;;;;0.40;0.40;;;;;;;18.75;84.30;99072.00;5090500;28;20187;-66
2022/09/13 05:33:56;;;;;;;0.50;0.50;;;;;;;18.99;84.23;99093.69;5090294;28;20203;-66
2022/09/13 05:36:23;;;;;;;0.33;0.33;;;;;;;19.14;83.50;99086.56;5090279;28;20199;-66
2022/09/13 05:38:49;;;;;;;0.40;0.40;;;;;;;19.33;82.41;99089.53;5090101;28;20236;-67
2022/09/13 05:41:16;;;;;;;0.47;0.47;;;;;;;19.58;82.95;99088.69;5090184;28;20197;-66
2022/09/13 05:43:43;;;;;;;0.40;0.40;;;;;;;19.73;80.16;99083.19;5090732;28;20193;-66
2022/09/13 05:46:12;;;;;;;0.40;0.40;;;;;;;19.79;80.38;99095.75;5093846;28;20202;-66
2022/09/13 05:48:39;;;;;;;0.40;0.40;;;;;;;19.93;79.61;99092.97;5093787;28;20260;-66
2022/09/13 05:51:09;;;;;;;0.40;0.40;;;;;;;20.09;79.68;99081.44;5093615;28;20192;-66
2022/09/13 05:53:38;;;;;;;0.50;0.50;;;;;;;20.18;79.96;99078.16;5093477;28;20278;-66
2022/09/13 05:56:06;;;;;;;0.40;0.40;;;;;;;20.32;79.02;99085.81;5093566;28;20203;-66
2022/09/13 05:58:33;;;;;;;0.50;0.50;;;;;;;20.47;78.24;99069.03;5093557;28;20207;-66
2022/09/13 06:01:00;;;;;;;0.30;0.30;;;;;;;20.75;78.31;99089.41;5093455;28;20207;-66
2022/09/13 06:03:27;;;;;;;0.40;0.40;;;;;;;20.90;77.61;99088.22;5093501;28;20209;-66
2022/09/13 06:05:57;;;;;;;0.30;0.30;;;;;;;20.92;75.63;99085.50;5093591;28;20201;-66
2022/09/13 06:08:27;;;;;;;0.30;0.30;;;;;;;21.05;75.01;99090.59;5093264;28;20548;-66
2022/09/13 06:10:56;;;;;;;0.30;0.30;;;;;;;21.06;74.84;99093.09;5093225;28;20684;-66
2022/09/13 06:13:23;;;;;;;0.30;0.30;;;;;;;21.05;74.03;99088.81;5092202;28;20230;-67
2022/09/13 06:15:50;;;;;;;0.30;0.30;;;;;;;21.05;73.74;99090.59;5093339;28;20204;-66
2022/09/13 06:18:17;;;;;;;0.30;0.30;;;;;;;20.97;73.88;99092.97;5092097;28;20369;-66
2022/09/13 06:20:44;;;;;;;0.33;0.33;;;;;;;21.03;74.02;99097.72;5093318;28;20225;-66
2022/09/13 06:23:11;;;;;;;0.30;0.30;;;;;;;21.09;74.31;99081.59;5092663;28;20212;-66
2022/09/13 06:25:39;;;;;;;0.27;0.27;;;;;;;21.30;73.70;99085.13;5092766;28;20201;-66
2022/09/13 06:28:06;;;;;;;0.40;0.40;;;;;;;21.59;71.45;99101.06;5092934;28;20201;-67
2022/09/13 06:30:33;;;;;;;0.50;0.50;;;;;;;21.68;70.73;99095.94;5092941;28;20203;-66
2022/09/13 06:33:00;;;;;;;0.20;0.20;;;;;;;21.71;69.89;99095.69;5090239;28;20870;-64
2022/09/13 06:35:27;;;;;;;0.30;0.30;;;;;;;21.95;70.39;99104.19;5088410;28;20207;-65
2022/09/13 06:37:56;;;;;;;0.37;0.37;;;;;;;22.14;69.36;99110.50;5090172;28;20222;-65
2022/09/13 06:40:23;;;;;;;0.30;0.30;;;;;;;22.29;68.45;99111.88;5087565;28;20208;-65
2022/09/13 06:42:51;;;;;;;0.30;0.30;;;;;;;22.52;69.95;99108.16;5091343;28;20203;-66
2022/09/13 06:45:18;;;;;;;0.20;0.20;;;;;;;22.75;68.49;99108.88;5090571;28;20667;-64
2022/09/13 06:47:45;;;;;;;0.30;0.30;;;;;;;22.99;65.87;99112.03;5090570;28;20203;-65
2022/09/13 06:50:12;;;;;;;0.27;0.27;;;;;;;22.96;66.22;99110.50;5086173;28;20199;-64
2022/09/13 06:52:39;;;;;;;0.33;0.33;;;;;;;23.05;67.04;99114.13;5090788;28;20203;-65
2022/09/13 06:55:06;;;;;;;0.20;0.20;;;;;;;23.07;65.70;99124.47;5092246;28;20663;-66
2022/09/13 06:57:33;;;;;;;0.30;0.30;;;;;;;23.13;65.72;99110.84;5090920;28;20191;-64
2022/09/13 07:00:02;;;;;;;0.20;0.20;;;;;;;23.09;64.43;99122.53;5092534;28;20244;-70
2022/09/13 07:02:28;;;;;;;0.50;0.50;;;;;;;23.16;64.23;99118.44;5092501;28;20199;-70
2022/09/13 07:04:55;;;;;;;0.30;0.30;;;;;;;23.17;63.77;99120.06;5092424;28;20294;-71
2022/09/13 07:07:22;;;;;;;0.40;0.40;;;;;;;23.18;62.97;99121.72;5092333;28;20195;-72
2022/09/13 07:09:49;;;;;;;0.30;0.30;;;;;;;23.07;63.60;99098.31;5092021;28;20207;-71
2022/09/13 07:12:15;;;;;;;0.20;0.20;;;;;;;23.29;62.44;99119.84;5090908;28;20230;-70
2022/09/13 07:14:42;;;;;;;0.23;0.23;;;;;;;23.44;63.90;99126.41;5090739;28;20203;-68
2022/09/13 07:17:10;;;;;;;0.20;0.20;;;;;;;23.60;60.85;99123.25;5090461;28;20214;-65
2022/09/13 07:19:37;;;;;;;0.30;0.30;;;;;;;23.78;62.52;99119.00;5090595;28;20215;-65
2022/09/13 07:22:04;;;;;;;0.30;0.30;;;;;;;23.77;61.57;99129.63;5091230;28;20199;-66
2022/09/13 07:24:31;;;;;;;0.30;0.30;;;;;;;23.81;61.29;99126.56;5090413;28;20257;-65
2022/09/13 07:26:58;;;;;;;0.30;0.30;;;;;;;23.89;60.77;99129.38;5090846;28;20195;-65
2022/09/13 07:29:25;;;;;;;0.30;0.30;;;;;;;24.08;59.52;99133.78;5091889;28;20192;-64
2022/09/13 07:31:53;;;;;;;0.20;0.20;;;;;;;24.13;59.95;99136.03;5091299;28;20204;-64
2022/09/13 07:34:23;;;;;;;0.20;0.20;;;;;;;24.12;58.64;99129.94;5091147;28;20196;-65
2022/09/13 07:36:51;;;;;;;0.30;0.30;;;;;;;24.30;55.42;99124.81;5090966;28;20195;-65
2022/09/13 07:39:18;;;;;;;0.20;0.20;;;;;;;24.51;57.16;99123.72;5091028;28;20250;-65
2022/09/13 07:41:47;;;;;;;0.20;0.20;;;;;;;24.59;58.33;99107.25;5089758;28;20283;-64
2022/09/13 07:44:14;;;;;;;0.20;0.20;;;;;;;24.81;51.28;99133.16;5090751;28;20196;-64
2022/09/13 07:46:42;;;;;;;0.20;0.20;;;;;;;24.83;51.08;99115.53;5090311;28;20214;-65
2022/09/13 07:49:11;;;;;;;0.20;0.20;;;;;;;25.07;51.09;99128.94;5089292;28;20210;-65
2022/09/13 07:51:41;;;;;;;0.20;0.20;;;;;;;25.27;53.67;99129.69;5090437;28;20735;-65
2022/09/13 07:54:11;;;;;;;0.20;0.20;;;;;;;25.42;49.55;99128.25;5087097;28;20214;-65
2022/09/13 07:56:39;;;;;;;0.30;0.30;;;;;;;25.56;50.49;99124.31;5086755;28;20195;-63
2022/09/13 07:59:10;;;;;;;0.20;0.20;;;;;;;25.72;47.06;99132.34;5088739;28;20845;-65
2022/09/13 08:01:39;;;;;;;0.20;0.20;;;;;;;25.89;49.42;99130.72;5089581;28;20850;-64
2022/09/13 08:04:07;;;;;;;0.20;0.20;;;;;;;25.82;48.87;99135.75;5089511;28;20191;-66
2022/09/13 08:06:36;;;;;;;0.23;0.23;;;;;;;25.82;47.35;99130.50;5087216;28;20199;-65
2022/09/13 08:09:06;;;;;;;0.30;0.30;;;;;;;26.00;49.61;99127.88;5089236;28;20619;-65
2022/09/13 08:11:35;;;;;;;0.30;0.30;;;;;;;25.91;49.83;99126.97;5088949;28;20674;-65
2022/09/13 08:14:02;;;;;;;0.30;0.30;;;;;;;25.98;49.86;99125.38;5089308;28;20204;-64
2022/09/13 08:16:30;;;;;;;0.20;0.20;;;;;;;26.13;46.63;99114.38;5089231;28;20191;-64
2022/09/13 08:18:58;;;;;;;0.20;0.20;;;;;;;26.22;47.14;99127.44;5089617;28;20211;-64
2022/09/13 08:21:25;;;;;;;0.20;0.20;;;;;;;26.35;48.58;99116.53;5088882;28;20207;-64
2022/09/13 08:23:58;;;;;;;0.27;0.27;;;;;;;26.47;45.85;99131.09;5089547;28;20598;-65
2022/09/13 08:26:26;;;;;;;0.20;0.20;;;;;;;26.61;46.31;99120.84;5090298;28;20634;-64
2022/09/13 08:28:57;;;;;;;0.20;0.20;;;;;;;26.66;42.10;99130.88;5091357;28;20199;-67
2022/09/13 08:31:24;;;;;;;0.20;0.20;;;;;;;26.58;44.73;99128.22;5090694;28;20649;-65
2022/09/13 08:33:50;;;;;;;0.20;0.20;;;;;;;26.15;44.39;99113.22;5090878;28;20206;-65
2022/09/13 08:36:18;;;;;;;0.20;0.20;;;;;;;26.11;46.89;99125.00;5090343;28;20203;-65
2022/09/13 08:38:46;;;;;;;0.20;0.20;;;;;;;26.25;46.02;99119.25;5090441;28;20344;-64
2022/09/13 08:41:43;;;;;;;0.20;0.20;;;;;;;26.30;45.54;99109.09;5090096;28;20203;-63
2022/09/13 08:44:22;;;;;;;0.20;0.20;;;;;;;26.25;47.56;99107.91;5089526;28;20203;-64
2022/09/13 08:46:50;;;;;;;0.20;0.20;;;;;;;26.38;45.51;99116.22;5086030;28;20195;-65
2022/09/13 08:49:21;;;;;;;0.20;0.20;;;;;;;26.51;43.76;99106.16;5089964;28;20199;-65
2022/09/13 08:51:50;;;;;;;0.20;0.20;;;;;;;26.71;47.70;99104.13;5090150;28;20671;-66
2022/09/13 08:54:19;;;;;;;0.30;0.30;;;;;;;26.69;46.01;99092.97;5086086;28;20203;-65
2022/09/13 08:56:52;;;;;;;0.30;0.30;;;;;;;26.76;44.80;99105.31;5085768;28;20199;-65
2022/09/13 08:59:33;;;;;;;0.20;0.20;;;;;;;26.54;45.09;99111.09;5089111;28;20264;-65
2022/09/13 09:02:13;;;;;;;0.20;0.20;;;;;;;26.35;43.90;99106.03;5086349;28;20278;-65
2022/09/13 09:04:45;;;;;;;0.57;0.57;;;;;;;25.94;45.42;99107.47;5084207;28;20203;-66
2022/09/13 09:07:17;;;;;;;0.30;0.30;;;;;;;25.37;46.24;99077.16;5088383;28;20200;-65
2022/09/13 09:09:49;;;;;;;0.23;0.23;;;;;;;25.44;46.25;99093.97;5086718;28;20208;-65
2022/09/13 09:12:25;;;;;;;0.20;0.20;;;;;;;25.38;46.87;99094.56;5086395;28;20227;-65
2022/09/13 09:15:01;;;;;;;0.30;0.30;;;;;;;25.08;46.71;99096.50;5083284;28;20200;-64
2022/09/13 09:17:34;;;;;;;0.30;0.30;;;;;;;24.96;47.59;99100.28;5087371;28;20203;-65
2022/09/13 09:20:09;;;;;;;0.30;0.30;;;;;;;24.86;46.59;99094.25;5090977;28;20223;-65
2022/09/13 09:22:36;;;;;;;0.30;0.30;;;;;;;24.80;45.81;99100.03;5090268;28;20718;-65
2022/09/13 09:25:04;;;;;;;0.20;0.20;;;;;;;24.79;45.18;99108.88;5091489;28;20207;-65
2022/09/13 09:27:33;;;;;;;0.20;0.20;;;;;;;24.67;44.39;99078.56;5091061;28;20293;-66
2022/09/13 09:30:02;;;;;;;0.30;0.30;;;;;;;24.86;43.76;99099.50;5091108;28;20591;-65
2022/09/13 09:32:47;;;;;;;0.30;0.30;;;;;;;24.93;44.25;99100.59;5090626;28;20227;-65
2022/09/13 09:35:27;;;;;;;0.30;0.30;;;;;;;24.97;43.85;99107.19;5090019;28;20713;-66
2022/09/13 09:38:10;;;;;;;0.20;0.20;;;;;;;25.05;45.12;99098.59;5091345;28;20199;-65
2022/09/13 09:40:37;;;;;;;0.20;0.20;;;;;;;25.03;44.91;99100.53;5088348;28;20219;-66
2022/09/13 09:43:13;;;;;;;0.20;0.20;;;;;;;24.98;44.08;99105.38;5089729;28;20285;-66
2022/09/13 09:45:41;;;;;;;0.20;0.20;;;;;;;24.91;43.24;99102.50;5090724;28;20280;-68
2022/09/13 09:48:15;;;;;;;0.20;0.20;;;;;;;24.88;44.65;99102.78;5090684;28;20204;-65
2022/09/13 09:50:49;;;;;;;0.20;0.20;;;;;;;24.86;43.21;99110.00;5091852;28;20256;-66
2022/09/13 09:53:23;;;;;;;0.30;0.30;;;;;;;24.94;44.56;99117.94;5090163;28;20207;-66
2022/09/13 09:55:54;;;;;;;0.20;0.20;;;;;;;24.73;43.82;99119.94;5088840;28;20203;-67
2022/09/13 09:58:38;;;;;;;0.30;0.30;;;;;;;24.80;43.96;99107.91;5090028;28;20236;-67
2022/09/13 10:01:05;;;;;;;0.30;0.30;;;;;;;24.69;43.18;99113.31;5090507;28;20299;-65
2022/09/13 10:03:34;;;;;;;0.30;0.30;;;;;;;24.77;44.44;99116.06;5088220;28;20719;-67
2022/09/13 10:06:06;;;;;;;0.20;0.20;;;;;;;24.87;45.24;99102.94;5090910;28;20207;-72
2022/09/13 10:08:35;;;;;;;0.27;0.27;;;;;;;25.01;45.74;99103.28;5090909;28;20207;-66
2022/09/13 10:11:03;;;;;;;0.20;0.20;;;;;;;25.15;44.73;99098.53;5091600;28;20214;-68
2022/09/13 10:13:32;;;;;;;0.20;0.20;;;;;;;25.26;45.50;99095.72;5090589;28;20292;-68
2022/09/13 10:16:01;;;;;;;0.20;0.20;;;;;;;25.28;46.76;99099.03;5091461;28;20203;-66
2022/09/13 10:18:29;;;;;;;0.20;0.20;;;;;;;25.32;46.09;99095.16;5090980;28;20571;-67
2022/09/13 10:21:01;;;;;;;0.30;0.30;;;;;;;25.33;44.86;99091.56;5091580;28;20218;-66
2022/09/13 10:23:29;;;;;;;0.20;0.20;;;;;;;25.35;41.86;99087.81;5091029;28;20200;-66
2022/09/13 10:26:01;;;;;;;0.30;0.30;;;;;;;25.23;43.89;99064.53;5091671;28;20637;-66
2022/09/13 10:28:34;;;;;;;0.30;0.30;;;;;;;25.31;44.42;99083.00;5090431;28;20260;-66
2022/09/13 10:31:05;;;;;;;0.20;0.20;;;;;;;25.26;46.89;99078.19;5090591;28;20203;-65
2022/09/13 10:33:34;;;;;;;0.30;0.30;;;;;;;25.38;44.37;99073.56;5090004;28;20195;-64
2022/09/13 10:36:04;;;;;;;0.30;0.30;;;;;;;25.56;44.00;99071.81;5091430;28;20237;-65
2022/09/13 10:38:35;;;;;;;0.27;0.27;;;;;;;25.57;41.55;99068.22;5084649;28;20203;-65
2022/09/13 10:41:06;;;;;;;0.27;0.27;;;;;;;25.63;43.57;99064.16;5089080;28;20215;-63
2022/09/13 10:43:35;;;;;;;0.20;0.20;;;;;;;25.71;44.10;99061.63;5090317;28;20200;-63
2022/09/13 10:46:05;;;;;;;0.20;0.20;;;;;;;25.65;41.86;99046.47;5091219;28;20211;-63
2022/09/13 10:48:45;;;;;;;0.20;0.20;;;;;;;25.71;41.38;99054.56;5090757;28;20203;-63
2022/09/13 10:51:28;;;;;;;0.30;0.30;;;;;;;25.61;41.94;99053.81;5090334;28;20221;-63
2022/09/13 10:54:17;;;;;;;0.30;0.30;;;;;;;25.69;43.95;99051.25;5090489;28;21740;-62
2022/09/13 10:56:45;;;;;;;0.20;0.20;;;;;;;25.68;47.13;99030.41;5089439;28;20663;-63
2022/09/13 10:59:21;;;;;;;0.20;0.20;;;;;;;25.75;42.11;99044.59;5090506;28;20706;-63
2022/09/13 11:02:19;;;;;;;0.20;0.20;;;;;;;25.81;41.04;99047.44;5090620;28;20698;-63
2022/09/13 11:05:05;;;;;;;0.20;0.20;;;;;;;25.88;40.98;99040.59;5089287;28;20731;-62
2022/09/13 11:07:52;;;;;;;0.20;0.20;;;;;;;26.03;40.42;99039.09;5090152;28;20226;-62
2022/09/13 11:10:25;;;;;;;0.20;0.20;;;;;;;26.17;44.02;99035.13;5090259;28;20607;-63
2022/09/13 11:12:59;;;;;;;0.30;0.30;;;;;;;26.17;39.58;99029.03;5089877;28;20234;-63
2022/09/13 11:15:51;;;;;;;0.20;0.20;;;;;;;26.22;39.62;99037.28;5090981;28;20271;-63
2022/09/13 11:18:50;;;;;;;0.13;0.13;;;;;;;26.18;43.22;99034.13;5090389;28;20633;-63
2022/09/13 11:21:34;;;;;;;0.20;0.20;;;;;;;26.22;42.72;99038.09;5066668;28;20386;-62
2022/09/13 11:24:39;;;;;;;0.20;0.20;;;;;;;26.20;41.58;99029.56;5089630;28;20195;-63
2022/09/13 11:27:14;;;;;;;0.20;0.20;;;;;;;26.13;43.14;99030.28;5056204;28;20637;-63
2022/09/13 11:29:57;;;;;;;0.20;0.20;;;;;;;26.02;43.62;99028.72;5090044;28;20198;-62
2022/09/13 11:32:35;;;;;;;0.20;0.20;;;;;;;25.99;41.99;99031.66;5090426;28;20207;-62
2022/09/13 11:35:21;;;;;;;0.20;0.20;;;;;;;25.91;42.83;99029.78;5088300;28;20264;-62
2022/09/13 11:37:58;;;;;;;0.20;0.20;;;;;;;25.84;43.21;99026.13;5086905;28;20210;-63
2022/09/13 11:40:40;;;;;;;0.20;0.20;;;;;;;25.72;43.46;99027.31;5090136;28;20279;-63
2022/09/13 11:43:23;;;;;;;0.20;0.20;;;;;;;25.66;43.56;99021.84;5087557;28;20203;-62
2022/09/13 11:45:59;;;;;;;0.27;0.27;;;;;;;25.66;43.29;99020.06;5089653;28;20262;-63
2022/09/13 11:48:44;;;;;;;0.20;0.20;;;;;;;25.59;42.93;99024.25;5088383;28;20664;-62
2022/09/13 11:51:19;;;;;;;0.30;0.30;;;;;;;25.58;44.80;99012.13;5089313;28;20264;-61
2022/09/13 11:54:06;;;;;;;0.20;0.20;;;;;;;25.61;45.72;99016.25;5088868;28;20195;-62